Upstream stations:
Downstream station:
SHEF ID: MRIT2 Lake Meredith
STATION TYPE: RESERVOIR
Flood Pool: Bottom = 2941.30, Top = 2965.00
ELEVATION STORAGE INFLOW RELEASE WIND-DIRWIND-SPEED
ft ac-ft cfs cfs deg mph
Ccp-Rev Ccp-Rev Rev-Regi Rev-Regi Ccp-Rev Ccp-Rev
(US/Central)
05/19 00:00 2883.51 203807 0 0 55.00 12.00
05/19 01:00 2883.47 203539 0 0 89.00 8.00
05/19 02:00 2883.46 203473 0 0 120.00 6.00
05/19 03:00 2883.46 203473 0 0 159.00 3.00
05/19 04:00 2883.50 203740 0 0 273.00 4.00
05/19 05:00 2883.53 203942 0 0 264.00 7.00
05/19 06:00 2883.48 203606 0 0 270.00 7.00
05/19 07:00 2883.46 203473 0 0 289.00 3.00
05/19 08:00 2883.40 203071 0 0 ---- ----
05/19 09:00 2883.49 203673 0 0 ---- ----
05/19 10:00 2883.52 203875 0 0 ---- ----
05/19 11:00 2883.52 203875 0 0 ---- ----
05/19 12:00 2883.51 203807 0 0 ---- ----
05/19 13:00 2883.52 203875 0 0 ---- ----
05/19 14:00 2883.48 203606 0 0 ---- ----
05/19 15:00 2883.55 204077 0 0 ---- ----
05/19 16:00 2883.56 204145 0 0 ---- ----
05/19 17:00 2883.54 204010 0 0 ---- ----
05/19 18:00 2883.51 203807 0 0 ---- ----
05/19 19:00 2883.51 203807 0 0 ---- ----
05/19 20:00 2883.55 204077 0 0 ---- ----
05/19 21:00 2883.52 203875 0 0 ---- ----
05/19 22:00 2883.52 203875 0 0 ---- ----
05/19 23:00 2883.51 203807 0 0 ---- ----